Time,TemperatureF,DewpointF,PressureIn,WindDirection,WindDirectionDegrees,WindSpeedMPH,WindSpeedGustMPH,Humidity,HourlyPrecipIn,Conditions,Clouds,dailyrainin,SoftwareType,DateUTC
2013-10-10 00:03:00,71.2,71.0,29.86,West,264,4.0,10.0,99,0.07,,,4.19,weatherlink.com 1.10,2013-10-10 04:03:00,
2013-10-10 00:18:00,70.9,71.0,29.86,SW,235,1.0,4.0,99,0.07,,,4.22,weatherlink.com 1.10,2013-10-10 04:18:00,
2013-10-10 00:36:00,71.2,71.0,29.84,SSW,210,4.0,6.0,99,0.06,,,0.03,weatherlink.com 1.10,2013-10-10 04:36:00,
2013-10-10 00:48:00,71.4,71.0,29.84,West,260,1.0,4.0,99,0.08,,,0.05,weatherlink.com 1.10,2013-10-10 04:48:00,
2013-10-10 01:03:00,71.4,71.0,29.84,ENE,64,3.0,10.0,99,0.42,,,0.39,weatherlink.com 1.10,2013-10-10 05:03:00,
2013-10-10 01:18:00,71.6,71.0,29.84,ENE,59,1.0,6.0,99,1.00,,,1.00,weatherlink.com 1.10,2013-10-10 05:18:00,
2013-10-10 01:33:00,71.6,71.0,29.84,NE,43,0.0,5.0,99,1.28,,,1.31,weatherlink.com 1.10,2013-10-10 05:33:00,
2013-10-10 01:48:00,71.3,71.0,29.83,NW,309,2.0,5.0,99,1.26,,,1.31,weatherlink.com 1.10,2013-10-10 05:48:00,
2013-10-10 02:03:00,71.5,71.0,29.83,SW,233,2.0,5.0,99,0.91,,,1.31,weatherlink.com 1.10,2013-10-10 06:03:00,
2013-10-10 02:18:00,71.9,72.0,29.83,SW,234,6.0,7.0,99,0.27,,,1.32,weatherlink.com 1.10,2013-10-10 06:18:00,
2013-10-10 02:33:00,71.7,71.0,29.82,SW,224,4.0,8.0,99,0.01,,,1.32,weatherlink.com 1.10,2013-10-10 06:33:00,
2013-10-10 02:48:00,71.6,71.0,29.81,WSW,242,3.0,6.0,99,0.01,,,1.32,weatherlink.com 1.10,2013-10-10 06:48:00,
2013-10-10 03:03:00,72.0,72.0,29.80,West,269,1.0,6.0,99,0.01,,,1.32,weatherlink.com 1.10,2013-10-10 07:03:00,
2013-10-10 03:18:00,72.0,72.0,29.79,NW,309,2.0,4.0,99,0.00,,,1.32,weatherlink.com 1.10,2013-10-10 07:18:00,
2013-10-10 03:33:00,72.1,72.0,29.79,WSW,258,5.0,8.0,99,0.00,,,1.32,weatherlink.com 1.10,2013-10-10 07:33:00,
2013-10-10 03:48:00,72.2,72.0,29.79,West,262,3.0,6.0,99,0.00,,,1.32,weatherlink.com 1.10,2013-10-10 07:48:00,
2013-10-10 04:03:00,72.6,72.0,29.79,West,263,2.0,8.0,99,0.01,,,1.33,weatherlink.com 1.10,2013-10-10 08:03:00,
2013-10-10 04:18:00,72.4,72.0,29.78,WSW,252,6.0,10.0,99,0.01,,,1.33,weatherlink.com 1.10,2013-10-10 08:18:00,
2013-10-10 04:33:00,72.4,72.0,29.77,WSW,251,4.0,8.0,99,0.02,,,1.34,weatherlink.com 1.10,2013-10-10 08:33:00,
2013-10-10 04:48:00,72.7,72.0,29.77,West,278,5.0,10.0,99,0.02,,,1.34,weatherlink.com 1.10,2013-10-10 08:48:00,
2013-10-10 05:03:00,72.8,73.0,29.77,WNW,289,3.0,7.0,99,0.01,,,1.34,weatherlink.com 1.10,2013-10-10 09:03:00,
2013-10-10 05:18:00,73.0,73.0,29.77,West,262,6.0,8.0,99,0.01,,,1.34,weatherlink.com 1.10,2013-10-10 09:18:00,
2013-10-10 05:33:00,73.1,73.0,29.77,West,281,4.0,8.0,98,0.00,,,1.34,weatherlink.com 1.10,2013-10-10 09:33:00,
2013-10-10 05:48:00,73.1,73.0,29.77,WNW,293,6.0,7.0,98,0.00,,,1.34,weatherlink.com 1.10,2013-10-10 09:48:00,
2013-10-10 06:03:00,73.5,73.0,29.77,North,357,11.0,12.0,98,0.00,,,1.34,weatherlink.com 1.10,2013-10-10 10:03:00,
2013-10-10 06:18:00,73.4,73.0,29.77,WNW,297,5.0,9.0,98,0.00,,,1.34,weatherlink.com 1.10,2013-10-10 10:18:00,
2013-10-10 06:33:00,72.8,72.0,29.77,West,279,5.0,6.0,98,0.00,,,1.34,weatherlink.com 1.10,2013-10-10 10:33:00,
2013-10-10 06:49:00,72.6,72.0,29.77,North,359,3.0,5.0,98,0.00,,,1.34,weatherlink.com 1.10,2013-10-10 10:49:00,
2013-10-10 07:04:00,72.9,72.0,29.77,NW,309,3.0,5.0,98,0.00,,,1.34,weatherlink.com 1.10,2013-10-10 11:04:00,
2013-10-10 07:19:00,73.1,73.0,29.77,NE,55,1.0,3.0,98,0.00,,,1.34,weatherlink.com 1.10,2013-10-10 11:19:00,
2013-10-10 07:34:00,73.3,73.0,29.78,NE,55,1.0,3.0,98,0.00,,,1.34,weatherlink.com 1.10,2013-10-10 11:34:00,
2013-10-10 07:49:00,73.7,73.0,29.78,ESE,107,4.0,7.0,98,0.00,,,1.34,weatherlink.com 1.10,2013-10-10 11:49:00,
2013-10-10 08:04:00,71.8,71.0,29.79,South,182,4.0,11.0,98,0.00,,,1.34,weatherlink.com 1.10,2013-10-10 12:04:00,
2013-10-10 08:19:00,71.6,71.0,29.79,SSE,161,6.0,10.0,98,0.00,,,1.34,weatherlink.com 1.10,2013-10-10 12:19:00,
2013-10-10 08:34:00,71.3,71.0,29.79,SE,129,7.0,11.0,98,0.00,,,1.34,weatherlink.com 1.10,2013-10-10 12:34:00,
2013-10-10 08:49:00,71.5,71.0,29.79,SSE,151,8.0,12.0,99,0.00,,,1.34,weatherlink.com 1.10,2013-10-10 12:49:00,
2013-10-10 09:04:00,71.8,71.0,29.79,SE,143,8.0,12.0,98,0.00,,,1.34,weatherlink.com 1.10,2013-10-10 13:04:00,
2013-10-10 09:19:00,72.0,71.0,29.80,SSE,148,6.0,11.0,98,0.00,,,1.34,weatherlink.com 1.10,2013-10-10 13:19:00,
2013-10-10 09:34:00,72.4,72.0,29.80,SE,124,6.0,9.0,98,0.00,,,1.34,weatherlink.com 1.10,2013-10-10 13:34:00,
2013-10-10 09:49:00,72.3,72.0,29.80,SE,125,6.0,9.0,98,0.00,,,1.34,weatherlink.com 1.10,2013-10-10 13:49:00,
2013-10-10 10:04:00,72.5,72.0,29.80,East,99,2.0,6.0,98,0.00,,,1.34,weatherlink.com 1.10,2013-10-10 14:04:00,
2013-10-10 10:19:00,73.0,72.0,29.81,East,92,5.0,10.0,97,0.00,,,1.34,weatherlink.com 1.10,2013-10-10 14:19:00,
2013-10-10 10:34:00,72.1,71.0,29.81,ENE,65,5.0,12.0,97,0.00,,,1.34,weatherlink.com 1.10,2013-10-10 14:34:00,
2013-10-10 10:49:00,71.5,71.0,29.81,East,99,8.0,15.0,97,0.00,,,1.34,weatherlink.com 1.10,2013-10-10 14:49:00,
2013-10-10 11:04:00,71.1,70.0,29.82,ESE,121,10.0,18.0,97,0.00,,,1.34,weatherlink.com 1.10,2013-10-10 15:04:00,
2013-10-10 11:19:00,71.2,71.0,29.82,ENE,63,3.0,14.0,98,0.00,,,1.34,weatherlink.com 1.10,2013-10-10 15:19:00,
2013-10-10 11:34:00,70.4,70.0,29.82,ESE,105,8.0,17.0,98,0.00,,,1.34,weatherlink.com 1.10,2013-10-10 15:34:00,
2013-10-10 11:49:00,70.3,70.0,29.83,East,98,12.0,14.0,98,0.00,,,1.34,weatherlink.com 1.10,2013-10-10 15:49:00,
2013-10-10 12:04:00,69.7,69.0,29.83,SE,127,12.0,15.0,98,0.00,,,1.34,weatherlink.com 1.10,2013-10-10 16:04:00,
2013-10-10 12:19:00,69.4,69.0,29.84,ESE,110,13.0,16.0,98,0.00,,,1.34,weatherlink.com 1.10,2013-10-10 16:19:00,
2013-10-10 12:34:00,69.4,69.0,29.84,ESE,113,9.0,15.0,97,0.00,,,1.34,weatherlink.com 1.10,2013-10-10 16:34:00,
2013-10-10 12:49:00,69.2,68.0,29.84,SE,124,11.0,17.0,96,0.00,,,1.34,weatherlink.com 1.10,2013-10-10 16:49:00,
2013-10-10 13:04:00,69.2,68.0,29.83,East,98,10.0,18.0,96,0.00,,,1.34,weatherlink.com 1.10,2013-10-10 17:04:00,
2013-10-10 13:19:00,69.0,68.0,29.83,ESE,119,5.0,18.0,96,0.00,,,1.34,weatherlink.com 1.10,2013-10-10 17:19:00,
2013-10-10 13:34:00,68.9,68.0,29.83,SE,125,12.0,18.0,95,0.00,,,1.34,weatherlink.com 1.10,2013-10-10 17:34:00,
2013-10-10 13:49:00,69.1,68.0,29.82,ESE,123,13.0,17.0,96,0.00,,,1.34,weatherlink.com 1.10,2013-10-10 17:49:00,
2013-10-10 14:04:00,69.1,68.0,29.82,East,86,14.0,17.0,95,0.00,,,1.34,weatherlink.com 1.10,2013-10-10 18:04:00,
2013-10-10 14:19:00,68.5,67.0,29.82,East,94,14.0,18.0,95,0.00,,,1.34,weatherlink.com 1.10,2013-10-10 18:19:00,
2013-10-10 14:34:00,68.3,67.0,29.82,ESE,122,13.0,18.0,95,0.00,,,1.34,weatherlink.com 1.10,2013-10-10 18:34:00,
2013-10-10 14:49:00,68.1,67.0,29.82,SE,131,14.0,20.0,95,0.00,,,1.34,weatherlink.com 1.10,2013-10-10 18:49:00,
2013-10-10 15:04:00,67.8,66.0,29.82,East,88,15.0,21.0,95,0.00,,,1.34,weatherlink.com 1.10,2013-10-10 19:04:00,
2013-10-10 15:19:00,67.8,66.0,29.82,ESE,108,14.0,19.0,95,0.00,,,1.34,weatherlink.com 1.10,2013-10-10 19:19:00,
2013-10-10 15:34:00,67.7,66.0,29.82,ESE,105,16.0,21.0,95,0.00,,,1.34,weatherlink.com 1.10,2013-10-10 19:34:00,
2013-10-10 15:49:00,67.9,67.0,29.82,ESE,123,10.0,21.0,95,0.00,,,1.34,weatherlink.com 1.10,2013-10-10 19:49:00,
2013-10-10 16:04:00,67.9,66.0,29.82,East,98,17.0,21.0,94,0.00,,,1.34,weatherlink.com 1.10,2013-10-10 20:04:00,
2013-10-10 16:19:00,67.9,66.0,29.82,ESE,114,15.0,20.0,94,0.00,,,1.34,weatherlink.com 1.10,2013-10-10 20:19:00,
2013-10-10 16:34:00,67.8,66.0,29.83,ESE,111,8.0,19.0,94,0.00,,,1.34,weatherlink.com 1.10,2013-10-10 20:34:00,
2013-10-10 16:49:00,67.6,66.0,29.83,SE,129,10.0,18.0,94,0.00,,,1.34,weatherlink.com 1.10,2013-10-10 20:49:00,
2013-10-10 17:05:00,67.4,66.0,29.83,SE,124,9.0,16.0,94,0.00,,,1.34,weatherlink.com 1.10,2013-10-10 21:05:00,
2013-10-10 17:20:00,67.3,66.0,29.83,SE,139,9.0,17.0,94,0.00,,,1.34,weatherlink.com 1.10,2013-10-10 21:20:00,
2013-10-10 17:35:00,67.0,65.0,29.83,ESE,117,11.0,17.0,94,0.00,,,1.34,weatherlink.com 1.10,2013-10-10 21:35:00,
2013-10-10 17:50:00,66.7,65.0,29.83,ESE,105,7.0,17.0,94,0.00,,,1.34,weatherlink.com 1.10,2013-10-10 21:50:00,
2013-10-10 18:05:00,66.5,65.0,29.83,ESE,105,8.0,17.0,95,0.00,,,1.34,weatherlink.com 1.10,2013-10-10 22:05:00,
2013-10-10 18:20:00,66.2,65.0,29.83,ESE,119,13.0,18.0,95,0.00,,,1.34,weatherlink.com 1.10,2013-10-10 22:20:00,
2013-10-10 18:35:00,66.0,65.0,29.84,ESE,110,9.0,14.0,95,0.00,,,1.34,weatherlink.com 1.10,2013-10-10 22:35:00,
2013-10-10 18:50:00,65.9,65.0,29.84,East,96,9.0,17.0,95,0.00,,,1.34,weatherlink.com 1.10,2013-10-10 22:50:00,
2013-10-10 19:05:00,65.8,64.0,29.84,ESE,115,14.0,16.0,95,0.00,,,1.34,weatherlink.com 1.10,2013-10-10 23:05:00,
2013-10-10 19:20:00,65.6,64.0,29.84,ESE,113,11.0,17.0,95,0.00,,,1.34,weatherlink.com 1.10,2013-10-10 23:20:00,
2013-10-10 19:35:00,65.5,64.0,29.84,ESE,122,9.0,17.0,95,0.00,,,1.34,weatherlink.com 1.10,2013-10-10 23:35:00,
2013-10-10 19:50:00,65.3,64.0,29.85,East,84,7.0,17.0,95,0.00,,,1.34,weatherlink.com 1.10,2013-10-10 23:50:00,
2013-10-10 20:05:00,65.2,64.0,29.85,ESE,103,12.0,17.0,95,0.00,,,1.34,weatherlink.com 1.10,2013-10-11 00:05:00,
2013-10-10 20:21:00,65.0,64.0,29.85,SE,129,12.0,15.0,96,0.00,,,1.34,weatherlink.com 1.10,2013-10-11 00:21:00,
2013-10-10 20:35:00,65.1,64.0,29.85,East,92,7.0,18.0,96,0.00,,,1.34,weatherlink.com 1.10,2013-10-11 00:35:00,
2013-10-10 20:50:00,64.9,64.0,29.85,East,100,12.0,15.0,96,0.00,,,1.34,weatherlink.com 1.10,2013-10-11 00:50:00,
2013-10-10 21:05:00,64.8,64.0,29.85,ESE,103,8.0,15.0,96,0.00,,,1.34,weatherlink.com 1.10,2013-10-11 01:05:00,
2013-10-10 21:20:00,64.6,64.0,29.85,ESE,114,5.0,14.0,96,0.00,,,1.34,weatherlink.com 1.10,2013-10-11 01:20:00,
2013-10-10 21:35:00,64.3,64.0,29.86,East,86,5.0,14.0,97,0.00,,,1.34,weatherlink.com 1.10,2013-10-11 01:35:00,
2013-10-10 21:50:00,64.0,63.0,29.86,SE,126,6.0,14.0,97,0.00,,,1.34,weatherlink.com 1.10,2013-10-11 01:50:00,
2013-10-10 22:05:00,63.9,63.0,29.85,ESE,110,7.0,13.0,97,0.00,,,1.34,weatherlink.com 1.10,2013-10-11 02:05:00,
2013-10-10 22:20:00,64.1,63.0,29.86,ESE,111,4.0,10.0,97,0.00,,,1.34,weatherlink.com 1.10,2013-10-11 02:20:00,
2013-10-10 22:35:00,64.1,63.0,29.86,ESE,114,6.0,10.0,97,0.00,,,1.34,weatherlink.com 1.10,2013-10-11 02:35:00,
2013-10-10 22:50:00,64.4,63.0,29.85,ENE,78,4.0,9.0,96,0.00,,,1.34,weatherlink.com 1.10,2013-10-11 02:50:00,
2013-10-10 23:05:00,64.6,64.0,29.85,East,93,3.0,9.0,96,0.00,,,1.34,weatherlink.com 1.10,2013-10-11 03:05:00,
2013-10-10 23:20:00,64.5,63.0,29.85,SE,127,10.0,12.0,96,0.00,,,1.34,weatherlink.com 1.10,2013-10-11 03:20:00,
2013-10-10 23:35:00,64.4,63.0,29.85,SE,126,4.0,12.0,96,0.00,,,1.34,weatherlink.com 1.10,2013-10-11 03:35:00,
2013-10-10 23:50:00,63.9,63.0,29.85,East,88,5.0,12.0,97,0.00,,,1.34,weatherlink.com 1.10,2013-10-11 03:50:00,